Charata, Argentina
Current Conditions -  °F | °C
As of 6:00 AM on Tuesday 21 Oct 2014 (Local Time) from SARE Reporting Station
Clear Clear  
Wind Chill: 17°   Ceiling: Unl
Heat Index: 17°   Visibility: 6mi
Dew Point: 14°   Wind: 5mph
Humidity: 82%   Direction: 110°ESE
Pressure: 30.06"   Gusts: NA
Location:  27.22°S, 61.2°W
Report Text: SARE 210900Z 11004KT CAVOK 17/14 Q1018
Loading
Personal Weather Stations






























Interactive Weather Map
Tropical Storm Tracking
New forecast layout! Learn more

10-Day Weather Forecast

Advertisements
Track Severe Weather on mobile